Time;durP1;ratioP1;P1;durP2;ratioP2;P2;SDS_P1;SDS_P2;PMS_P1;PMS_P2;Temp;Humidity;BMP_temperature;BMP_pressure;BME280_temperature;BME280_humidity;BME280_pressure;Samples;Min_cycle;Max_cycle;Signal;HPM_P1;HPM_P2
2022/11/22 00:01:40;;;;;;;0.10;0.10;;;0.70;99.90;;;;;;5095501;28;20218;-72
2022/11/22 00:04:08;;;;;;;0.10;0.10;;;0.60;99.90;;;;;;5096744;28;20276;-73
2022/11/22 00:06:35;;;;;;;0.10;0.10;;;0.70;99.90;;;;;;5094058;28;20225;-73
2022/11/22 00:09:03;;;;;;;0.10;0.10;;;0.60;99.90;;;;;;5091795;28;20229;-73
2022/11/22 00:11:30;;;;;;;0.10;0.10;;;0.60;99.90;;;;;;5097541;28;20201;-72
2022/11/22 00:13:58;;;;;;;0.10;0.10;;;0.60;99.90;;;;;;5097352;28;20225;-72
2022/11/22 00:16:25;;;;;;;0.10;0.10;;;0.60;99.90;;;;;;5088854;28;20607;-73
2022/11/22 00:18:54;;;;;;;0.10;0.10;;;0.60;99.90;;;;;;5106286;27;20193;-73
2022/11/22 00:21:21;;;;;;;0.10;0.10;;;0.60;99.90;;;;;;5103443;27;20213;-73
2022/11/22 00:23:48;;;;;;;0.10;0.10;;;0.60;99.90;;;;;;5111300;27;20243;-72
2022/11/22 00:26:15;;;;;;;0.20;0.20;;;0.60;99.90;;;;;;5096092;28;20323;-72
2022/11/22 00:28:42;;;;;;;0.10;0.10;;;0.60;99.90;;;;;;5098399;28;20266;-72
2022/11/22 00:31:10;;;;;;;0.10;0.10;;;0.60;99.90;;;;;;5097775;28;20201;-73
2022/11/22 00:33:37;;;;;;;0.10;0.10;;;0.60;99.90;;;;;;5096709;28;20215;-73
2022/11/22 00:36:05;;;;;;;0.10;0.10;;;0.60;99.90;;;;;;5094340;28;20314;-73
2022/11/22 00:38:33;;;;;;;0.10;0.10;;;0.60;99.90;;;;;;5096814;28;20208;-72
2022/11/22 00:41:00;;;;;;;0.20;0.20;;;0.60;99.90;;;;;;5094721;28;20225;-71
2022/11/22 00:43:27;;;;;;;0.10;0.10;;;0.60;99.90;;;;;;5094781;28;20269;-72
2022/11/22 00:45:54;;;;;;;0.10;0.10;;;0.60;99.90;;;;;;5097078;28;20228;-71
2022/11/22 00:48:22;;;;;;;0.10;0.10;;;0.50;99.90;;;;;;5096936;28;20200;-72
2022/11/22 00:50:49;;;;;;;0.10;0.10;;;0.60;99.90;;;;;;5106996;27;20201;-72
2022/11/22 00:53:18;;;;;;;0.10;0.10;;;0.50;99.90;;;;;;5094998;28;20220;-72
2022/11/22 00:55:45;;;;;;;0.10;0.10;;;0.60;99.90;;;;;;5097192;28;20225;-72
2022/11/22 00:58:13;;;;;;;0.10;0.10;;;0.60;99.90;;;;;;5098143;28;20193;-73
2022/11/22 01:00:40;;;;;;;0.10;0.10;;;0.60;99.90;;;;;;5095787;28;20213;-72
2022/11/22 01:03:10;;;;;;;0.10;0.10;;;0.60;99.90;;;;;;5097911;28;20213;-72
2022/11/22 01:05:37;;;;;;;0.10;0.10;;;0.60;99.90;;;;;;5095737;28;20220;-71
2022/11/22 01:08:04;;;;;;;0.10;0.10;;;0.60;99.90;;;;;;5094928;28;20194;-73
2022/11/22 01:10:35;;;;;;;0.10;0.10;;;0.60;99.90;;;;;;5094777;28;20201;-72
2022/11/22 01:13:02;;;;;;;0.10;0.10;;;0.60;99.90;;;;;;5097083;28;20213;-73
2022/11/22 01:15:29;;;;;;;0.10;0.10;;;0.60;99.90;;;;;;5096002;28;20194;-73
2022/11/22 01:17:56;;;;;;;0.10;0.10;;;0.60;99.90;;;;;;5095401;28;20189;-73
2022/11/22 01:20:24;;;;;;;0.10;0.10;;;0.60;99.90;;;;;;5090079;28;20201;-72
2022/11/22 01:22:51;;;;;;;0.10;0.10;;;0.60;99.90;;;;;;5095451;28;20213;-72
2022/11/22 01:25:18;;;;;;;0.10;0.10;;;0.60;99.90;;;;;;5096494;28;20203;-72
2022/11/22 01:27:47;;;;;;;0.10;0.10;;;0.60;99.90;;;;;;5092580;28;20305;-71
2022/11/22 01:30:15;;;;;;;0.10;0.10;;;0.60;99.90;;;;;;5087416;28;20193;-72
2022/11/22 01:32:42;;;;;;;0.10;0.10;;;0.60;99.90;;;;;;5087691;28;20205;-72
2022/11/22 01:35:09;;;;;;;0.17;0.17;;;0.60;99.90;;;;;;5094124;28;20259;-72
2022/11/22 01:37:36;;;;;;;0.10;0.10;;;0.60;99.90;;;;;;5091454;28;20196;-72
2022/11/22 01:40:04;;;;;;;0.10;0.10;;;0.60;99.90;;;;;;5095480;28;20200;-72
2022/11/22 01:42:43;;;;;;;0.10;0.10;;;0.60;99.90;;;;;;5093266;28;20234;-71
2022/11/22 01:45:50;;;;;;;0.10;0.10;;;0.60;99.90;;;;;;5103603;27;20202;-72
2022/11/22 01:48:27;;;;;;;0.10;0.10;;;0.50;99.90;;;;;;5009684;28;20248;-71
2022/11/22 01:50:59;;;;;;;0.10;0.10;;;0.60;99.90;;;;;;4994199;28;20290;-72
2022/11/22 01:53:31;;;;;;;0.10;0.10;;;0.50;99.90;;;;;;5071436;27;20225;-72
2022/11/22 01:56:02;;;;;;;0.10;0.10;;;0.50;99.90;;;;;;5106934;27;20223;-72
2022/11/22 01:58:33;;;;;;;0.10;0.10;;;0.50;99.90;;;;;;5089142;28;20278;-72
2022/11/22 02:01:02;;;;;;;0.10;0.10;;;0.50;99.90;;;;;;5093130;28;20224;-72
2022/11/22 02:03:33;;;;;;;0.10;0.10;;;0.50;99.90;;;;;;5092920;28;20229;-72
2022/11/22 02:06:01;;;;;;;0.10;0.10;;;0.50;99.90;;;;;;5094475;28;20223;-72
2022/11/22 02:08:35;;;;;;;0.10;0.10;;;0.50;99.90;;;;;;5096403;28;20197;-73
2022/11/22 02:11:03;;;;;;;0.10;0.10;;;0.50;99.90;;;;;;5093922;28;20201;-72
2022/11/22 02:13:33;;;;;;;0.10;0.10;;;0.50;99.90;;;;;;5093709;28;20291;-72
2022/11/22 02:16:03;;;;;;;0.10;0.10;;;0.50;99.90;;;;;;5105105;27;20204;-72
2022/11/22 02:18:31;;;;;;;0.15;0.15;;;0.50;99.90;;;;;;5095035;28;20201;-72
2022/11/22 02:20:59;;;;;;;0.10;0.10;;;0.50;99.90;;;;;;5086425;28;20197;-72
2022/11/22 02:23:38;;;;;;;0.10;0.10;;;0.50;99.90;;;;;;5093080;28;20243;-72
2022/11/22 02:26:06;;;;;;;0.10;0.10;;;0.50;99.90;;;;;;5112889;27;20204;-72
2022/11/22 02:28:37;;;;;;;0.10;0.10;;;0.50;99.90;;;;;;5098215;28;20270;-72
2022/11/22 02:31:05;;;;;;;0.10;0.10;;;0.50;99.90;;;;;;5093687;28;20197;-72
2022/11/22 02:33:32;;;;;;;0.10;0.10;;;0.50;99.90;;;;;;5099032;28;20717;-72
2022/11/22 02:35:59;;;;;;;0.10;0.10;;;0.50;99.90;;;;;;5096090;28;20205;-72
2022/11/22 02:38:31;;;;;;;0.10;0.10;;;0.50;99.90;;;;;;5097800;28;20209;-72
2022/11/22 02:41:02;;;;;;;0.10;0.10;;;0.50;99.90;;;;;;5097423;28;20197;-72
2022/11/22 02:43:34;;;;;;;0.10;0.10;;;0.50;99.90;;;;;;5099655;28;20295;-72
2022/11/22 02:46:05;;;;;;;0.10;0.10;;;0.50;99.90;;;;;;5099266;28;20205;-72
2022/11/22 02:48:32;;;;;;;0.10;0.10;;;0.50;99.90;;;;;;5098002;28;20200;-72
2022/11/22 02:50:59;;;;;;;0.10;0.10;;;0.50;99.90;;;;;;5101665;28;20258;-72
2022/11/22 02:53:26;;;;;;;0.10;0.10;;;0.50;99.90;;;;;;5101695;28;20267;-72
2022/11/22 02:55:53;;;;;;;0.10;0.10;;;0.50;99.90;;;;;;5098943;28;20203;-72
2022/11/22 02:58:20;;;;;;;0.10;0.10;;;0.50;99.90;;;;;;5100729;28;20223;-71
2022/11/22 03:00:49;;;;;;;0.10;0.10;;;0.50;99.90;;;;;;5098760;28;20207;-72
2022/11/22 03:03:16;;;;;;;0.20;0.20;;;0.50;99.90;;;;;;5098224;28;20217;-72
2022/11/22 03:05:43;;;;;;;0.10;0.10;;;0.50;99.90;;;;;;5097303;28;20205;-72
2022/11/22 03:08:10;;;;;;;0.10;0.10;;;0.50;99.90;;;;;;5099420;28;20227;-72
2022/11/22 03:10:37;;;;;;;0.10;0.10;;;0.50;99.90;;;;;;5098076;28;20203;-72
2022/11/22 03:13:04;;;;;;;0.10;0.10;;;0.50;99.90;;;;;;5098259;28;20305;-72
2022/11/22 03:15:31;;;;;;;0.03;0.03;;;0.50;99.90;;;;;;5095208;28;20228;-72
2022/11/22 03:18:01;;;;;;;0.10;0.10;;;0.50;99.90;;;;;;5092926;28;20205;-72
2022/11/22 03:20:29;;;;;;;0.10;0.10;;;0.50;99.90;;;;;;5098668;28;20674;-72
2022/11/22 03:22:56;;;;;;;0.20;0.20;;;0.60;99.90;;;;;;5099689;28;20227;-70
2022/11/22 03:25:23;;;;;;;0.10;0.10;;;0.50;99.90;;;;;;5096143;28;20198;-72
2022/11/22 03:27:51;;;;;;;0.10;0.10;;;0.60;99.90;;;;;;5098489;28;20221;-71
2022/11/22 03:30:18;;;;;;;0.10;0.10;;;0.60;99.90;;;;;;5092978;28;20462;-72
2022/11/22 03:32:45;;;;;;;0.10;0.10;;;0.60;99.90;;;;;;5097680;28;20293;-72
2022/11/22 03:35:14;;;;;;;0.10;0.10;;;0.60;99.90;;;;;;5096795;28;20284;-72
2022/11/22 03:37:41;;;;;;;0.10;0.10;;;0.60;99.90;;;;;;5097151;28;20205;-72
2022/11/22 03:40:09;;;;;;;0.00;0.00;;;0.60;99.90;;;;;;5099592;28;20204;-72
2022/11/22 03:42:36;;;;;;;0.10;0.10;;;0.70;99.90;;;;;;5096681;28;20292;-72
2022/11/22 03:45:04;;;;;;;0.10;0.10;;;0.60;99.90;;;;;;5096331;28;20200;-71
2022/11/22 03:47:31;;;;;;;0.10;0.10;;;0.60;99.90;;;;;;5096962;28;20227;-72
2022/11/22 03:49:58;;;;;;;0.10;0.10;;;0.70;99.90;;;;;;5096885;28;20224;-72
2022/11/22 03:52:28;;;;;;;0.10;0.10;;;0.70;99.90;;;;;;5096454;28;20264;-72
2022/11/22 03:54:55;;;;;;;0.10;0.10;;;0.70;99.90;;;;;;5096571;28;20197;-72
2022/11/22 03:57:22;;;;;;;0.10;0.10;;;0.70;99.90;;;;;;5099570;28;20190;-72
2022/11/22 03:59:49;;;;;;;0.10;0.10;;;0.70;99.90;;;;;;5096193;28;20198;-72
2022/11/22 04:02:16;;;;;;;0.10;0.10;;;0.70;99.90;;;;;;5096756;28;20193;-72
2022/11/22 04:04:43;;;;;;;0.05;0.05;;;0.70;99.90;;;;;;5097170;28;20221;-72
2022/11/22 04:07:11;;;;;;;0.10;0.10;;;0.70;99.90;;;;;;5097783;28;20222;-72
2022/11/22 04:09:39;;;;;;;0.10;0.10;;;0.70;99.90;;;;;;5095400;28;20319;-72
2022/11/22 04:12:06;;;;;;;0.10;0.10;;;0.80;99.90;;;;;;5097853;28;20208;-72
2022/11/22 04:17:39;;;;;;;0.10;0.10;;;0.70;99.90;;;;;;5089903;28;20220;-72
2022/11/22 04:22:56;;;;;;;0.10;0.10;;;0.70;99.90;;;;;;5091486;28;20209;-72
2022/11/22 04:25:25;;;;;;;0.10;0.10;;;0.70;99.90;;;;;;5095845;28;20206;-72
2022/11/22 04:27:54;;;;;;;0.10;0.10;;;0.80;99.90;;;;;;5096184;28;20209;-72
2022/11/22 04:32:44;;;;;;;0.10;0.10;;;0.70;99.90;;;;;;5097106;28;20194;-72
2022/11/22 04:33:09;;;;;;;0.10;0.10;;;0.70;99.90;;;;;;5097573;28;20220;-71
2022/11/22 04:35:36;;;;;;;0.10;0.10;;;0.80;99.90;;;;;;5093467;28;20786;-72
2022/11/22 04:38:04;;;;;;;0.10;0.10;;;0.80;99.90;;;;;;5094504;28;20217;-73
2022/11/22 04:40:33;;;;;;;0.20;0.20;;;0.80;99.90;;;;;;5093101;28;20721;-73
2022/11/22 04:45:45;;;;;;;0.10;0.10;;;0.80;99.90;;;;;;5094944;28;20272;-72
2022/11/22 04:48:13;;;;;;;0.10;0.10;;;0.90;99.90;;;;;;5086687;28;20224;-71
2022/11/22 04:53:29;;;;;;;0.10;0.10;;;0.90;99.90;;;;;;5088849;28;20221;-72
2022/11/22 04:55:57;;;;;;;0.10;0.10;;;0.90;99.90;;;;;;5093446;28;20268;-72
2022/11/22 04:58:25;;;;;;;0.10;0.10;;;0.80;99.90;;;;;;5098085;28;20189;-73
2022/11/22 05:00:52;;;;;;;0.10;0.10;;;0.80;99.90;;;;;;5088883;28;20197;-73
2022/11/22 05:03:20;;;;;;;0.10;0.10;;;0.90;99.90;;;;;;5096616;28;20228;-73
2022/11/22 05:05:47;;;;;;;0.10;0.10;;;0.90;99.90;;;;;;5101063;27;20211;-72
2022/11/22 05:08:14;;;;;;;0.10;0.10;;;0.90;99.90;;;;;;5097155;28;20217;-72
2022/11/22 05:10:56;;;;;;;0.10;0.10;;;0.90;99.90;;;;;;5106546;27;20197;-72
2022/11/22 05:13:28;;;;;;;0.10;0.10;;;0.90;99.90;;;;;;5091525;28;20270;-72
2022/11/22 05:15:55;;;;;;;0.10;0.10;;;0.90;99.90;;;;;;5096361;28;20206;-73
2022/11/22 05:18:25;;;;;;;0.10;0.10;;;0.90;99.90;;;;;;5098029;28;20637;-73
2022/11/22 05:20:52;;;;;;;0.10;0.10;;;0.90;99.90;;;;;;5093737;28;20201;-72
2022/11/22 05:26:06;;;;;;;0.10;0.10;;;0.80;99.90;;;;;;5089498;28;20622;-73
2022/11/22 05:28:37;;;;;;;0.10;0.10;;;0.80;99.90;;;;;;5096858;28;20237;-73
2022/11/22 05:31:09;;;;;;;0.10;0.10;;;0.80;99.90;;;;;;5104753;27;20207;-73
2022/11/22 05:33:38;;;;;;;0.10;0.10;;;0.80;99.90;;;;;;5095379;28;20308;-72
2022/11/22 05:36:07;;;;;;;0.10;0.10;;;0.80;99.90;;;;;;5087356;28;20208;-72
2022/11/22 05:38:36;;;;;;;0.10;0.10;;;0.90;99.90;;;;;;5087733;28;20190;-73
2022/11/22 05:41:04;;;;;;;0.10;0.10;;;0.90;99.90;;;;;;5088436;28;20198;-73
2022/11/22 05:43:32;;;;;;;0.10;0.10;;;0.90;99.90;;;;;;5083611;28;20271;-73
2022/11/22 05:46:07;;;;;;;0.10;0.10;;;0.90;99.90;;;;;;5086171;28;20208;-73
2022/11/22 05:48:34;;;;;;;0.10;0.10;;;0.90;99.90;;;;;;5091932;28;20220;-73
2022/11/22 05:51:05;;;;;;;0.20;0.20;;;0.90;99.90;;;;;;5095403;28;20280;-73
2022/11/22 05:53:32;;;;;;;0.10;0.10;;;0.90;99.90;;;;;;5095458;28;20277;-73
2022/11/22 05:56:04;;;;;;;0.10;0.10;;;0.90;99.90;;;;;;5091777;28;20204;-73
2022/11/22 05:58:32;;;;;;;0.10;0.10;;;0.90;99.90;;;;;;5094722;28;20189;-74
2022/11/22 06:01:04;;;;;;;0.10;0.10;;;0.90;99.90;;;;;;5094621;28;20355;-72
2022/11/22 06:03:33;;;;;;;0.10;0.10;;;0.90;99.90;;;;;;5094441;28;20220;-73
2022/11/22 06:06:00;;;;;;;0.20;0.20;;;0.90;99.90;;;;;;5096617;28;20197;-74
2022/11/22 06:08:29;;;;;;;0.10;0.10;;;1.00;99.90;;;;;;5097744;28;20215;-73
2022/11/22 06:11:03;;;;;;;0.10;0.10;;;1.00;99.90;;;;;;5093619;28;20197;-74
2022/11/22 06:13:33;;;;;;;0.10;0.10;;;1.00;99.90;;;;;;5095080;28;20221;-73
2022/11/22 06:16:01;;;;;;;0.10;0.10;;;1.00;99.90;;;;;;5092684;28;20240;-72
2022/11/22 06:18:28;;;;;;;0.20;0.20;;;1.00;99.90;;;;;;5096887;28;20281;-73
2022/11/22 06:20:58;;;;;;;0.10;0.10;;;1.00;99.90;;;;;;5095434;28;20198;-73
2022/11/22 06:23:26;;;;;;;0.10;0.10;;;1.00;99.90;;;;;;5093030;28;20278;-72
2022/11/22 06:25:58;;;;;;;0.20;0.20;;;1.00;99.90;;;;;;5091080;28;20201;-72
2022/11/22 06:28:25;;;;;;;0.10;0.10;;;0.90;99.90;;;;;;5094383;28;20213;-72
2022/11/22 06:30:52;;;;;;;0.17;0.17;;;1.00;99.90;;;;;;5094713;28;20261;-73
2022/11/22 06:33:19;;;;;;;0.10;0.10;;;1.00;99.90;;;;;;5089219;28;20257;-73
2022/11/22 06:35:47;;;;;;;0.17;0.17;;;1.00;99.90;;;;;;5091023;28;20301;-72
2022/11/22 06:38:15;;;;;;;0.15;0.15;;;1.00;99.90;;;;;;5107501;28;20189;-72
2022/11/22 06:40:42;;;;;;;0.10;0.10;;;1.00;99.90;;;;;;5094204;28;20225;-72
2022/11/22 06:43:09;;;;;;;0.10;0.10;;;1.00;99.90;;;;;;5083560;28;20227;-71
2022/11/22 06:45:37;;;;;;;0.10;0.10;;;1.00;99.90;;;;;;5090206;28;20228;-72
2022/11/22 06:48:04;;;;;;;0.10;0.10;;;1.00;99.90;;;;;;5094157;28;20228;-72
2022/11/22 06:50:31;;;;;;;0.10;0.10;;;1.00;99.90;;;;;;5093892;28;20205;-72
2022/11/22 06:52:59;;;;;;;0.10;0.10;;;1.00;99.90;;;;;;5094338;28;20250;-72
2022/11/22 06:55:27;;;;;;;0.10;0.10;;;1.00;99.90;;;;;;5096268;28;20204;-73
2022/11/22 06:57:54;;;;;;;0.10;0.10;;;1.00;99.90;;;;;;5096516;28;20198;-72
2022/11/22 07:00:22;;;;;;;0.10;0.10;;;1.00;99.90;;;;;;5093351;28;20208;-71
2022/11/22 07:02:49;;;;;;;0.10;0.10;;;1.00;99.90;;;;;;5094857;28;20223;-73
2022/11/22 07:05:16;;;;;;;0.10;0.10;;;1.00;99.90;;;;;;5097017;28;20197;-72
2022/11/22 07:07:44;;;;;;;0.10;0.10;;;1.00;99.90;;;;;;5095412;28;20313;-73
2022/11/22 07:10:11;;;;;;;0.10;0.10;;;1.00;99.90;;;;;;5092672;28;20193;-73
2022/11/22 07:12:40;;;;;;;0.10;0.10;;;1.00;99.90;;;;;;5090087;28;20194;-72
2022/11/22 07:15:08;;;;;;;0.10;0.10;;;1.00;99.90;;;;;;5098680;28;20201;-72
2022/11/22 07:17:36;;;;;;;0.20;0.20;;;1.00;99.90;;;;;;5108708;27;20209;-73
2022/11/22 07:20:03;;;;;;;0.20;0.20;;;1.10;99.90;;;;;;5096691;28;20197;-73
2022/11/22 07:22:30;;;;;;;0.10;0.10;;;1.10;99.90;;;;;;5098415;28;20194;-73
2022/11/22 07:24:58;;;;;;;0.10;0.10;;;1.10;99.90;;;;;;5098787;28;20307;-72
2022/11/22 07:27:25;;;;;;;0.10;0.10;;;1.10;99.90;;;;;;5088497;28;20201;-73
2022/11/22 07:29:54;;;;;;;0.10;0.10;;;1.10;99.90;;;;;;5096247;28;20193;-73
2022/11/22 07:32:21;;;;;;;0.10;0.10;;;1.10;99.90;;;;;;5098975;28;20262;-73
2022/11/22 07:34:48;;;;;;;0.10;0.10;;;1.10;99.90;;;;;;5098787;28;20217;-73
2022/11/22 07:37:15;;;;;;;0.10;0.10;;;1.20;99.90;;;;;;5094610;28;20205;-72
2022/11/22 07:39:42;;;;;;;0.10;0.10;;;1.20;99.90;;;;;;5095274;28;20257;-73
2022/11/22 07:42:09;;;;;;;0.10;0.10;;;1.20;99.90;;;;;;5098664;28;20614;-72
2022/11/22 07:44:37;;;;;;;0.10;0.10;;;1.20;99.90;;;;;;5090498;28;20236;-73
2022/11/22 07:47:06;;;;;;;0.10;0.10;;;1.20;99.90;;;;;;5095353;28;20250;-73
2022/11/22 07:49:33;;;;;;;0.10;0.10;;;1.20;99.90;;;;;;5088440;28;20218;-72
2022/11/22 07:52:00;;;;;;;0.10;0.10;;;1.20;99.90;;;;;;5091419;28;20232;-72
2022/11/22 07:54:27;;;;;;;0.10;0.10;;;1.20;99.90;;;;;;5097961;28;20217;-73
2022/11/22 07:56:54;;;;;;;0.10;0.10;;;1.30;99.90;;;;;;5095084;28;20699;-71
2022/11/22 07:59:22;;;;;;;0.10;0.10;;;1.20;99.90;;;;;;5098520;28;20619;-73
2022/11/22 08:01:49;;;;;;;0.10;0.10;;;1.20;99.90;;;;;;5097676;28;21010;-72
2022/11/22 08:04:18;;;;;;;0.10;0.10;;;1.30;99.90;;;;;;5094269;28;20277;-73
2022/11/22 08:06:46;;;;;;;0.10;0.10;;;1.30;99.90;;;;;;5095918;28;20262;-72
2022/11/22 08:09:13;;;;;;;0.10;0.10;;;1.30;99.90;;;;;;5097535;28;20225;-73
2022/11/22 08:11:40;;;;;;;0.10;0.10;;;1.40;99.90;;;;;;5099153;28;21198;-73
2022/11/22 08:14:07;;;;;;;0.10;0.10;;;1.40;99.90;;;;;;5094566;28;20222;-72
2022/11/22 08:16:34;;;;;;;0.10;0.10;;;1.40;99.90;;;;;;5095006;28;20204;-73
2022/11/22 08:19:02;;;;;;;0.10;0.10;;;1.40;99.90;;;;;;5096847;28;20722;-72
2022/11/22 08:21:30;;;;;;;0.10;0.10;;;1.40;99.90;;;;;;5097854;28;20197;-73
2022/11/22 08:23:58;;;;;;;0.10;0.10;;;1.40;99.90;;;;;;5094247;28;20217;-72
2022/11/22 08:26:26;;;;;;;0.10;0.10;;;1.40;99.90;;;;;;5096357;28;20213;-72
2022/11/22 08:28:53;;;;;;;0.10;0.10;;;1.40;99.90;;;;;;5088807;28;20222;-72
2022/11/22 08:31:21;;;;;;;0.10;0.10;;;1.40;99.90;;;;;;5105336;27;20201;-72
2022/11/22 08:33:52;;;;;;;0.10;0.10;;;1.40;99.90;;;;;;5093629;28;20667;-72
2022/11/22 08:36:19;;;;;;;0.10;0.10;;;1.50;99.90;;;;;;5098294;28;20623;-72
2022/11/22 08:38:48;;;;;;;0.10;0.10;;;1.50;99.90;;;;;;5097042;28;20623;-71
2022/11/22 08:41:16;;;;;;;0.10;0.10;;;1.50;99.90;;;;;;5106854;27;21266;-72
2022/11/22 08:43:43;;;;;;;0.10;0.10;;;1.50;99.90;;;;;;5095119;28;20659;-71
2022/11/22 08:46:10;;;;;;;0.10;0.10;;;1.50;99.90;;;;;;5095792;28;20722;-72
2022/11/22 08:48:38;;;;;;;0.10;0.10;;;1.50;99.90;;;;;;5087416;28;20658;-72
2022/11/22 08:51:07;;;;;;;0.10;0.10;;;1.50;99.90;;;;;;5096524;28;20288;-73
2022/11/22 08:53:35;;;;;;;0.10;0.10;;;1.50;99.90;;;;;;5097094;28;20650;-72
2022/11/22 08:56:08;;;;;;;0.10;0.10;;;1.50;99.90;;;;;;5096269;28;20280;-72
2022/11/22 08:58:36;;;;;;;0.10;0.10;;;1.50;99.90;;;;;;5091019;28;20665;-72
2022/11/22 09:01:07;;;;;;;0.10;0.10;;;1.50;99.90;;;;;;5089753;28;20651;-73
2022/11/22 09:03:35;;;;;;;0.10;0.10;;;1.50;99.90;;;;;;5095526;28;20658;-72
2022/11/22 09:06:03;;;;;;;0.00;0.00;;;1.60;99.90;;;;;;5095290;28;20197;-72
2022/11/22 09:08:31;;;;;;;0.10;0.10;;;1.60;99.90;;;;;;5094884;28;20213;-72
2022/11/22 09:11:01;;;;;;;0.10;0.10;;;1.60;99.90;;;;;;5086988;28;20205;-72
2022/11/22 09:13:30;;;;;;;0.10;0.10;;;1.70;99.90;;;;;;5097180;28;20634;-73
2022/11/22 09:16:01;;;;;;;0.10;0.10;;;1.70;99.90;;;;;;5095204;28;20615;-72
2022/11/22 09:18:29;;;;;;;0.10;0.10;;;1.60;99.90;;;;;;5098155;28;20679;-73
2022/11/22 09:20:59;;;;;;;0.10;0.10;;;1.60;99.90;;;;;;5095345;28;20600;-72
2022/11/22 09:23:26;;;;;;;0.10;0.10;;;1.70;99.90;;;;;;5089144;28;20646;-72
2022/11/22 09:25:57;;;;;;;0.10;0.10;;;1.70;99.90;;;;;;5095554;28;20688;-72
2022/11/22 09:28:25;;;;;;;0.17;0.17;;;1.70;99.90;;;;;;5092682;28;20732;-72
2022/11/22 09:31:00;;;;;;;0.10;0.10;;;1.80;99.90;;;;;;5095037;28;20628;-73
2022/11/22 09:33:28;;;;;;;0.10;0.10;;;1.80;99.90;;;;;;5096496;28;20666;-73
2022/11/22 09:36:00;;;;;;;0.10;0.10;;;1.90;99.90;;;;;;5096361;28;20618;-71
2022/11/22 09:38:27;;;;;;;0.10;0.10;;;2.00;99.90;;;;;;5096990;28;20676;-72
2022/11/22 09:40:55;;;;;;;0.10;0.10;;;2.00;99.90;;;;;;5096295;28;20654;-73
2022/11/22 09:43:34;;;;;;;0.10;0.10;;;2.10;99.90;;;;;;5094828;28;20948;-73
2022/11/22 09:46:20;;;;;;;0.10;0.10;;;2.10;99.90;;;;;;5094562;28;20731;-73
2022/11/22 09:49:15;;;;;;;0.10;0.10;;;2.20;99.90;;;;;;5085034;28;20723;-71
2022/11/22 09:51:46;;;;;;;0.10;0.10;;;2.20;99.90;;;;;;5084196;28;20638;-71
2022/11/22 09:54:19;;;;;;;0.10;0.10;;;2.20;99.90;;;;;;5097116;28;20643;-72
2022/11/22 09:56:48;;;;;;;0.10;0.10;;;2.20;99.90;;;;;;5096162;28;20626;-72
2022/11/22 09:59:21;;;;;;;0.10;0.10;;;2.60;99.90;;;;;;5096520;28;20638;-72
2022/11/22 10:01:53;;;;;;;0.10;0.10;;;2.20;99.90;;;;;;5096775;28;20610;-73
2022/11/22 10:04:24;;;;;;;0.10;0.10;;;2.20;99.90;;;;;;5094137;28;20649;-72
2022/11/22 10:06:56;;;;;;;0.10;0.10;;;2.30;99.90;;;;;;5097137;28;20627;-73
2022/11/22 10:09:33;;;;;;;0.10;0.10;;;2.30;99.90;;;;;;5097257;28;20679;-73
2022/11/22 10:12:07;;;;;;;0.10;0.10;;;2.30;99.90;;;;;;5087772;28;20634;-72
2022/11/22 10:14:42;;;;;;;0.10;0.10;;;2.30;99.90;;;;;;5095522;28;20639;-73
2022/11/22 10:17:24;;;;;;;0.10;0.10;;;2.20;99.90;;;;;;5095070;28;20615;-72
2022/11/22 10:19:59;;;;;;;0.10;0.10;;;2.20;99.90;;;;;;5094549;28;20647;-73
2022/11/22 10:22:29;;;;;;;0.10;0.10;;;2.20;99.90;;;;;;5093382;28;21175;-73
2022/11/22 10:24:58;;;;;;;0.10;0.10;;;2.30;99.90;;;;;;5092960;28;20619;-73
2022/11/22 10:27:30;;;;;;;0.10;0.10;;;2.30;99.90;;;;;;5095454;28;20611;-72
2022/11/22 10:30:02;;;;;;;0.10;0.10;;;2.30;99.90;;;;;;5085032;28;20657;-72
2022/11/22 10:32:37;;;;;;;0.10;0.10;;;2.30;99.90;;;;;;5093030;28;20611;-72
2022/11/22 10:35:25;;;;;;;0.10;0.10;;;2.30;99.90;;;;;;5094658;28;20679;-73
2022/11/22 10:38:02;;;;;;;0.10;0.10;;;2.40;99.90;;;;;;5110474;28;20643;-73
2022/11/22 10:40:39;;;;;;;0.10;0.10;;;2.40;99.90;;;;;;5092689;28;20619;-73
2022/11/22 10:43:28;;;;;;;0.10;0.10;;;2.50;99.90;;;;;;5092577;28;21069;-73
2022/11/22 10:46:03;;;;;;;0.10;0.10;;;2.50;99.90;;;;;;5090816;28;20659;-72
2022/11/22 10:48:40;;;;;;;0.10;0.10;;;2.50;99.90;;;;;;5090716;28;20627;-72
2022/11/22 10:51:18;;;;;;;0.10;0.10;;;2.60;99.90;;;;;;5099316;28;20614;-72
2022/11/22 10:53:55;;;;;;;0.10;0.10;;;2.60;99.90;;;;;;5091382;28;20654;-73
2022/11/22 10:56:30;;;;;;;0.10;0.10;;;2.60;99.90;;;;;;5098959;28;20614;-73
2022/11/22 10:59:23;;;;;;;0.10;0.10;;;2.60;99.90;;;;;;5096549;28;20603;-71
2022/11/22 11:01:57;;;;;;;0.10;0.10;;;2.70;99.90;;;;;;5098304;28;20663;-72
2022/11/22 11:04:29;;;;;;;0.20;0.20;;;2.70;99.90;;;;;;5098408;28;20653;-72
2022/11/22 11:06:58;;;;;;;0.10;0.10;;;2.70;99.90;;;;;;5097494;28;20657;-71
2022/11/22 11:09:32;;;;;;;0.10;0.10;;;2.80;99.90;;;;;;5097364;28;20713;-72
2022/11/22 11:12:02;;;;;;;0.10;0.10;;;2.80;99.90;;;;;;5099052;28;21218;-72
2022/11/22 11:14:33;;;;;;;0.10;0.10;;;2.80;99.90;;;;;;5096150;28;20655;-73
2022/11/22 11:17:02;;;;;;;0.10;0.10;;;2.90;99.90;;;;;;5096642;28;20622;-72
2022/11/22 11:19:37;;;;;;;0.10;0.10;;;2.90;99.90;;;;;;5097677;28;20654;-72
2022/11/22 11:22:16;;;;;;;0.10;0.10;;;2.90;99.90;;;;;;5109086;27;20614;-73
2022/11/22 11:24:44;;;;;;;0.10;0.10;;;2.90;99.90;;;;;;5089868;28;20654;-72
2022/11/22 11:27:12;;;;;;;0.10;0.10;;;2.90;99.90;;;;;;5098808;28;21210;-72
2022/11/22 11:29:43;;;;;;;0.10;0.10;;;2.90;99.90;;;;;;5088198;28;20665;-73
2022/11/22 11:32:15;;;;;;;0.10;0.10;;;2.90;99.90;;;;;;5098652;28;20607;-73
2022/11/22 11:34:52;;;;;;;0.10;0.10;;;2.90;99.90;;;;;;5095694;28;20634;-72
2022/11/22 11:37:24;;;;;;;0.10;0.10;;;2.80;99.90;;;;;;5098019;28;20606;-73
2022/11/22 11:39:52;;;;;;;0.10;0.10;;;2.90;99.90;;;;;;5096307;28;20607;-73
2022/11/22 11:42:25;;;;;;;0.10;0.10;;;2.90;99.90;;;;;;5096293;28;21082;-72
2022/11/22 11:44:53;;;;;;;0.10;0.10;;;2.90;99.90;;;;;;5096070;28;20608;-73
2022/11/22 11:47:32;;;;;;;0.10;0.10;;;3.00;99.90;;;;;;5098016;28;20607;-73
2022/11/22 11:50:00;;;;;;;0.10;0.10;;;3.00;99.90;;;;;;5094420;28;20654;-73
2022/11/22 11:52:30;;;;;;;0.10;0.10;;;3.00;99.90;;;;;;5096373;28;20599;-73
2022/11/22 11:55:00;;;;;;;0.10;0.10;;;3.00;99.90;;;;;;5107677;27;20694;-73
2022/11/22 11:57:29;;;;;;;0.10;0.10;;;3.10;99.90;;;;;;5098227;28;20614;-72
2022/11/22 11:59:59;;;;;;;0.10;0.10;;;3.10;99.90;;;;;;5097974;28;20646;-72
2022/11/22 12:02:34;;;;;;;0.10;0.10;;;3.10;99.90;;;;;;5096203;28;20621;-73
2022/11/22 12:05:06;;;;;;;0.00;0.00;;;3.20;99.90;;;;;;5089373;28;20633;-72
2022/11/22 12:07:42;;;;;;;0.10;0.10;;;3.20;99.90;;;;;;5090470;28;20623;-73
2022/11/22 12:10:41;;;;;;;0.10;0.10;;;3.30;99.90;;;;;;5097125;28;20716;-75
2022/11/22 12:13:15;;;;;;;0.10;0.10;;;3.40;99.90;;;;;;5100025;28;20703;-72
2022/11/22 12:15:51;;;;;;;0.10;0.10;;;3.40;99.90;;;;;;5089932;28;20631;-74
2022/11/22 12:18:36;;;;;;;0.10;0.10;;;3.50;99.90;;;;;;5098681;28;20622;-74
2022/11/22 12:21:15;;;;;;;0.10;0.10;;;3.60;99.90;;;;;;5087892;28;20623;-72
2022/11/22 12:23:50;;;;;;;0.10;0.10;;;3.60;99.90;;;;;;5097299;28;20649;-73
2022/11/22 12:26:18;;;;;;;0.10;0.10;;;;;;;;;;5096365;28;20594;-73
2022/11/22 12:28:46;;;;;;;0.10;0.10;;;;;;;;;;5086637;28;20683;-73
2022/11/22 12:31:26;;;;;;;0.10;0.10;;;;;;;;;;5095291;28;20643;-73
2022/11/22 12:33:56;;;;;;;0.10;0.10;;;;;;;;;;5098607;28;20634;-74
2022/11/22 12:36:28;;;;;;;0.10;0.10;;;;;;;;;;5097135;28;20607;-73
2022/11/22 12:38:55;;;;;;;0.10;0.10;;;;;;;;;;5089003;28;20619;-73
2022/11/22 12:41:26;;;;;;;0.10;0.10;;;;;;;;;;5099210;28;20610;-74
2022/11/22 12:43:55;;;;;;;0.10;0.10;;;;;;;;;;5097975;28;20731;-74
2022/11/22 12:46:23;;;;;;;0.10;0.10;;;;;;;;;;5097342;28;20634;-74
2022/11/22 12:48:53;;;;;;;0.10;0.10;;;;;;;;;;5109078;27;20639;-73
2022/11/22 12:51:24;;;;;;;0.10;0.10;;;;;;;;;;5090355;28;20683;-73
2022/11/22 12:53:53;;;;;;;0.00;0.00;;;;;;;;;;5097898;28;20643;-74
2022/11/22 12:56:26;;;;;;;0.10;0.10;;;;;;;;;;5093579;28;20612;-74
2022/11/22 12:58:55;;;;;;;0.10;0.10;;;;;;;;;;5092672;28;20699;-74
2022/11/22 13:01:26;;;;;;;0.10;0.10;;;;;;;;;;5096839;28;20714;-74
2022/11/22 13:03:56;;;;;;;0.10;0.10;;;;;;;;;;5095095;28;20674;-74
2022/11/22 13:06:25;;;;;;;0.10;0.10;;;;;;;;;;5091720;28;20627;-74
2022/11/22 13:08:59;;;;;;;0.10;0.10;;;;;;;;;;5088295;28;20634;-74
2022/11/22 13:11:29;;;;;;;0.10;0.10;;;;;;;;;;5086261;28;20738;-74
2022/11/22 13:13:58;;;;;;;0.10;0.10;;;;;;;;;;5095862;28;20662;-74
2022/11/22 13:16:26;;;;;;;0.00;0.00;;;;;;;;;;5094481;28;20641;-73
2022/11/22 13:18:57;;;;;;;0.10;0.10;;;;;;;;;;5097658;28;21063;-74
2022/11/22 13:21:30;;;;;;;0.10;0.10;;;;;;;;;;5092708;28;20608;-74
2022/11/22 13:24:11;;;;;;;0.07;0.07;;;;;;;;;;5094203;28;20630;-75
2022/11/22 13:26:41;;;;;;;0.10;0.10;;;;;;;;;;5096897;28;20703;-74
2022/11/22 13:29:11;;;;;;;0.10;0.10;;;;;;;;;;5094301;28;20730;-73
2022/11/22 13:31:38;;;;;;;0.10;0.10;;;;;;;;;;5094646;28;20655;-73
2022/11/22 13:34:22;;;;;;;0.10;0.10;;;;;;;;;;5094372;28;21054;-73